Aviation Digital Data Service (ADDS)

Output produced by METARs form (0851 UTC 24 March 2019)
found at http://www.aviationweather.gov/metar/data/
 
Forecast for: WMKI (IPOH , MY)
Text: TAF WMKI 240500Z 2406/2506 21010KT 9999 FEW020
Forecast period: 0600 to 1200 UTC 24 March 2019
Forecast type: FROM: standard forecast or significant change
Winds: from the SSW (210 degrees) at 12 MPH (10 knots; 5.1 m/s)
Visibility: 6 or more miles 10+ km)
Ceiling: at least 12,000 feet AGL
Clouds: few clouds at 2000 feet AGL
Weather: no significant weather forecast for this period
Text: TEMPO 2408/2412 5000 TSRA FEW017CB
Forecast period: 0800 to 1200 UTC 24 March 2019
Forecast type: TEMPORARY: The following changes expected for less than half the time period
Visibility: 3 miles (5 km)
Ceiling: at least 12,000 feet AGL
Clouds: few clouds at 1700 feet AGL
Weather: TSRA  (rain associated with thunderstorm(s))
Text: BECMG 2412/2414 VRB03KT FEW030
Forecast period: 1200 UTC 24 March 2019 to 0600 UTC 25 March 2019
Forecast type: BECOMING: Conditions expected to become as follows by 1400 UTC 24 March 2019
Winds: variable direction winds at 3 MPH (3 knots; 1.5 m/s)
Visibility: 6 or more miles 10+ km)
Ceiling: at least 12,000 feet AGL
Clouds: few clouds at 3000 feet AGL
Weather: no significant weather forecast for this period